sensor_id;sensor_type;location;lat;lon;timestamp;P1;durP1;ratioP1;P2;durP2;ratioP2
53650;SDS011;39552;45.776;15.892;2022-10-16T00:00:26;77.00;;;54.30;;
53650;SDS011;39552;45.776;15.892;2022-10-16T00:03:10;72.38;;;51.97;;
53650;SDS011;39552;45.776;15.892;2022-10-16T00:06:03;77.75;;;52.97;;
53650;SDS011;39552;45.776;15.892;2022-10-16T00:08:40;73.15;;;49.95;;
53650;SDS011;39552;45.776;15.892;2022-10-16T00:11:10;77.63;;;53.30;;
53650;SDS011;39552;45.776;15.892;2022-10-16T00:13:47;70.38;;;49.88;;
53650;SDS011;39552;45.776;15.892;2022-10-16T00:16:23;78.57;;;50.75;;
53650;SDS011;39552;45.776;15.892;2022-10-16T00:18:57;77.75;;;50.88;;
53650;SDS011;39552;45.776;15.892;2022-10-16T00:21:33;77.13;;;50.67;;
53650;SDS011;39552;45.776;15.892;2022-10-16T00:24:03;78.40;;;50.75;;
53650;SDS011;39552;45.776;15.892;2022-10-16T00:26:33;77.47;;;50.72;;
53650;SDS011;39552;45.776;15.892;2022-10-16T00:29:01;74.07;;;48.88;;
53650;SDS011;39552;45.776;15.892;2022-10-16T00:31:28;76.68;;;50.40;;
53650;SDS011;39552;45.776;15.892;2022-10-16T00:33:58;72.55;;;46.90;;
53650;SDS011;39552;45.776;15.892;2022-10-16T00:36:28;75.32;;;48.25;;
53650;SDS011;39552;45.776;15.892;2022-10-16T00:38:55;87.45;;;46.88;;
53650;SDS011;39552;45.776;15.892;2022-10-16T00:41:30;75.85;;;47.85;;
53650;SDS011;39552;45.776;15.892;2022-10-16T00:44:03;83.28;;;48.60;;
53650;SDS011;39552;45.776;15.892;2022-10-16T00:46:55;118.38;;;49.40;;
53650;SDS011;39552;45.776;15.892;2022-10-16T00:49:27;109.93;;;50.33;;
53650;SDS011;39552;45.776;15.892;2022-10-16T00:51:54;148.70;;;51.30;;
53650;SDS011;39552;45.776;15.892;2022-10-16T00:54:22;108.07;;;53.47;;
53650;SDS011;39552;45.776;15.892;2022-10-16T00:56:59;82.05;;;53.35;;
53650;SDS011;39552;45.776;15.892;2022-10-16T00:59:43;118.20;;;55.25;;
53650;SDS011;39552;45.776;15.892;2022-10-16T01:02:23;149.87;;;53.67;;
53650;SDS011;39552;45.776;15.892;2022-10-16T01:04:56;135.02;;;53.10;;
53650;SDS011;39552;45.776;15.892;2022-10-16T01:07:30;177.13;;;50.90;;
53650;SDS011;39552;45.776;15.892;2022-10-16T01:10:14;150.35;;;49.78;;
53650;SDS011;39552;45.776;15.892;2022-10-16T01:12:54;223.50;;;52.17;;
53650;SDS011;39552;45.776;15.892;2022-10-16T01:15:35;126.53;;;46.10;;
53650;SDS011;39552;45.776;15.892;2022-10-16T01:21:08;129.15;;;45.50;;
53650;SDS011;39552;45.776;15.892;2022-10-16T01:23:48;176.98;;;46.13;;
53650;SDS011;39552;45.776;15.892;2022-10-16T01:26:35;81.97;;;44.30;;
53650;SDS011;39552;45.776;15.892;2022-10-16T01:29:27;62.67;;;42.87;;
53650;SDS011;39552;45.776;15.892;2022-10-16T01:32:09;55.45;;;42.17;;
53650;SDS011;39552;45.776;15.892;2022-10-16T01:34:52;61.40;;;43.17;;
53650;SDS011;39552;45.776;15.892;2022-10-16T01:37:33;57.72;;;42.63;;
53650;SDS011;39552;45.776;15.892;2022-10-16T01:40:05;76.20;;;45.40;;
53650;SDS011;39552;45.776;15.892;2022-10-16T01:42:41;79.53;;;45.70;;
53650;SDS011;39552;45.776;15.892;2022-10-16T01:45:31;66.00;;;44.97;;
53650;SDS011;39552;45.776;15.892;2022-10-16T01:48:16;90.28;;;42.63;;
53650;SDS011;39552;45.776;15.892;2022-10-16T01:50:58;68.03;;;43.40;;
53650;SDS011;39552;45.776;15.892;2022-10-16T01:53:35;72.05;;;43.35;;
53650;SDS011;39552;45.776;15.892;2022-10-16T01:56:14;94.80;;;46.00;;
53650;SDS011;39552;45.776;15.892;2022-10-16T01:58:54;83.35;;;44.00;;
53650;SDS011;39552;45.776;15.892;2022-10-16T02:01:30;69.35;;;40.92;;
53650;SDS011;39552;45.776;15.892;2022-10-16T02:04:16;89.50;;;41.60;;
53650;SDS011;39552;45.776;15.892;2022-10-16T02:06:51;58.22;;;39.97;;
53650;SDS011;39552;45.776;15.892;2022-10-16T02:09:24;53.15;;;40.92;;
53650;SDS011;39552;45.776;15.892;2022-10-16T02:12:01;55.55;;;40.50;;
53650;SDS011;39552;45.776;15.892;2022-10-16T02:14:52;65.53;;;41.53;;
53650;SDS011;39552;45.776;15.892;2022-10-16T02:17:29;59.42;;;41.03;;
53650;SDS011;39552;45.776;15.892;2022-10-16T02:19:58;61.90;;;41.83;;
53650;SDS011;39552;45.776;15.892;2022-10-16T02:22:41;80.32;;;44.35;;
53650;SDS011;39552;45.776;15.892;2022-10-16T02:25:13;185.57;;;45.58;;
53650;SDS011;39552;45.776;15.892;2022-10-16T02:27:53;69.10;;;42.10;;
53650;SDS011;39552;45.776;15.892;2022-10-16T02:30:29;88.50;;;43.60;;
53650;SDS011;39552;45.776;15.892;2022-10-16T02:33:10;135.45;;;42.22;;
53650;SDS011;39552;45.776;15.892;2022-10-16T02:36:06;55.50;;;39.03;;
53650;SDS011;39552;45.776;15.892;2022-10-16T02:38:59;94.30;;;41.60;;
53650;SDS011;39552;45.776;15.892;2022-10-16T02:41:38;211.25;;;44.45;;
53650;SDS011;39552;45.776;15.892;2022-10-16T02:44:22;82.93;;;42.55;;
53650;SDS011;39552;45.776;15.892;2022-10-16T02:47:00;69.63;;;41.20;;
53650;SDS011;39552;45.776;15.892;2022-10-16T02:49:42;69.68;;;39.85;;
53650;SDS011;39552;45.776;15.892;2022-10-16T02:52:15;62.20;;;39.90;;
53650;SDS011;39552;45.776;15.892;2022-10-16T02:54:46;65.88;;;39.47;;
53650;SDS011;39552;45.776;15.892;2022-10-16T02:57:16;83.80;;;38.05;;
53650;SDS011;39552;45.776;15.892;2022-10-16T02:59:54;59.63;;;36.90;;
53650;SDS011;39552;45.776;15.892;2022-10-16T03:02:26;75.95;;;40.10;;
53650;SDS011;39552;45.776;15.892;2022-10-16T03:05:09;72.88;;;38.83;;
53650;SDS011;39552;45.776;15.892;2022-10-16T03:07:45;57.67;;;38.47;;
53650;SDS011;39552;45.776;15.892;2022-10-16T03:10:16;50.15;;;37.97;;
53650;SDS011;39552;45.776;15.892;2022-10-16T03:12:43;55.80;;;36.67;;
53650;SDS011;39552;45.776;15.892;2022-10-16T03:15:13;48.30;;;35.75;;
53650;SDS011;39552;45.776;15.892;2022-10-16T03:17:43;45.20;;;34.70;;
53650;SDS011;39552;45.776;15.892;2022-10-16T03:20:24;60.55;;;38.10;;
53650;SDS011;39552;45.776;15.892;2022-10-16T03:22:58;54.50;;;34.05;;
53650;SDS011;39552;45.776;15.892;2022-10-16T03:25:38;63.15;;;34.67;;
53650;SDS011;39552;45.776;15.892;2022-10-16T03:28:13;58.22;;;35.55;;
53650;SDS011;39552;45.776;15.892;2022-10-16T03:30:43;56.92;;;36.85;;
53650;SDS011;39552;45.776;15.892;2022-10-16T03:33:19;48.33;;;35.15;;
53650;SDS011;39552;45.776;15.892;2022-10-16T03:35:58;54.83;;;36.53;;
53650;SDS011;39552;45.776;15.892;2022-10-16T03:38:25;49.08;;;35.60;;
53650;SDS011;39552;45.776;15.892;2022-10-16T03:40:52;45.65;;;36.15;;
53650;SDS011;39552;45.776;15.892;2022-10-16T03:43:29;43.97;;;35.33;;
53650;SDS011;39552;45.776;15.892;2022-10-16T03:45:58;61.17;;;35.80;;
53650;SDS011;39552;45.776;15.892;2022-10-16T03:48:40;46.08;;;35.15;;
53650;SDS011;39552;45.776;15.892;2022-10-16T03:53:56;59.80;;;34.60;;
53650;SDS011;39552;45.776;15.892;2022-10-16T03:56:33;73.75;;;34.00;;
53650;SDS011;39552;45.776;15.892;2022-10-16T03:59:11;39.95;;;31.52;;
53650;SDS011;39552;45.776;15.892;2022-10-16T04:01:42;43.65;;;31.70;;
53650;SDS011;39552;45.776;15.892;2022-10-16T04:04:21;46.08;;;30.90;;
53650;SDS011;39552;45.776;15.892;2022-10-16T04:07:05;41.70;;;30.73;;
53650;SDS011;39552;45.776;15.892;2022-10-16T04:09:44;33.88;;;28.17;;
53650;SDS011;39552;45.776;15.892;2022-10-16T04:12:11;38.00;;;27.95;;
53650;SDS011;39552;45.776;15.892;2022-10-16T04:14:43;34.50;;;27.38;;
53650;SDS011;39552;45.776;15.892;2022-10-16T04:17:21;29.95;;;26.50;;
53650;SDS011;39552;45.776;15.892;2022-10-16T04:19:56;37.70;;;27.02;;
53650;SDS011;39552;45.776;15.892;2022-10-16T04:22:48;37.60;;;27.45;;
53650;SDS011;39552;45.776;15.892;2022-10-16T04:25:28;36.60;;;27.63;;
53650;SDS011;39552;45.776;15.892;2022-10-16T04:28:02;61.50;;;26.35;;
53650;SDS011;39552;45.776;15.892;2022-10-16T04:30:33;66.13;;;27.58;;
53650;SDS011;39552;45.776;15.892;2022-10-16T04:33:15;31.55;;;26.10;;
53650;SDS011;39552;45.776;15.892;2022-10-16T04:35:57;34.55;;;26.27;;
53650;SDS011;39552;45.776;15.892;2022-10-16T04:38:31;35.63;;;27.08;;
53650;SDS011;39552;45.776;15.892;2022-10-16T04:41:04;55.03;;;27.92;;
53650;SDS011;39552;45.776;15.892;2022-10-16T04:43:43;32.72;;;26.45;;
53650;SDS011;39552;45.776;15.892;2022-10-16T04:46:15;32.50;;;26.33;;
53650;SDS011;39552;45.776;15.892;2022-10-16T04:48:51;29.92;;;25.38;;
53650;SDS011;39552;45.776;15.892;2022-10-16T04:51:23;29.85;;;25.92;;
53650;SDS011;39552;45.776;15.892;2022-10-16T04:53:59;103.97;;;27.17;;
53650;SDS011;39552;45.776;15.892;2022-10-16T04:56:35;37.30;;;25.17;;
53650;SDS011;39552;45.776;15.892;2022-10-16T04:59:15;42.13;;;25.27;;
53650;SDS011;39552;45.776;15.892;2022-10-16T05:01:58;56.05;;;28.88;;
53650;SDS011;39552;45.776;15.892;2022-10-16T05:04:33;94.30;;;28.10;;
53650;SDS011;39552;45.776;15.892;2022-10-16T05:07:04;30.25;;;25.52;;
53650;SDS011;39552;45.776;15.892;2022-10-16T05:09:44;84.93;;;28.27;;
53650;SDS011;39552;45.776;15.892;2022-10-16T05:12:23;64.40;;;29.00;;
53650;SDS011;39552;45.776;15.892;2022-10-16T05:14:58;69.40;;;29.55;;
53650;SDS011;39552;45.776;15.892;2022-10-16T05:17:29;38.80;;;27.88;;
53650;SDS011;39552;45.776;15.892;2022-10-16T05:20:00;82.72;;;29.65;;
53650;SDS011;39552;45.776;15.892;2022-10-16T05:22:37;107.00;;;29.63;;
53650;SDS011;39552;45.776;15.892;2022-10-16T05:25:13;63.60;;;29.73;;
53650;SDS011;39552;45.776;15.892;2022-10-16T05:27:49;39.95;;;28.73;;
53650;SDS011;39552;45.776;15.892;2022-10-16T05:30:25;144.68;;;33.33;;
53650;SDS011;39552;45.776;15.892;2022-10-16T05:32:59;43.85;;;30.38;;
53650;SDS011;39552;45.776;15.892;2022-10-16T05:35:35;35.88;;;28.63;;
53650;SDS011;39552;45.776;15.892;2022-10-16T05:38:10;43.35;;;27.95;;
53650;SDS011;39552;45.776;15.892;2022-10-16T05:40:54;36.35;;;26.92;;
53650;SDS011;39552;45.776;15.892;2022-10-16T05:43:27;50.50;;;27.50;;
53650;SDS011;39552;45.776;15.892;2022-10-16T05:46:13;53.75;;;21.85;;
53650;SDS011;39552;45.776;15.892;2022-10-16T05:48:47;50.75;;;27.80;;
53650;SDS011;39552;45.776;15.892;2022-10-16T05:51:16;43.38;;;28.17;;
53650;SDS011;39552;45.776;15.892;2022-10-16T05:53:49;55.67;;;28.17;;
53650;SDS011;39552;45.776;15.892;2022-10-16T05:56:27;48.47;;;27.80;;
53650;SDS011;39552;45.776;15.892;2022-10-16T05:59:01;64.47;;;28.58;;
53650;SDS011;39552;45.776;15.892;2022-10-16T06:01:56;55.72;;;29.63;;
53650;SDS011;39552;45.776;15.892;2022-10-16T06:04:25;53.72;;;28.27;;
53650;SDS011;39552;45.776;15.892;2022-10-16T06:06:58;52.13;;;27.63;;
53650;SDS011;39552;45.776;15.892;2022-10-16T06:09:33;41.45;;;28.88;;
53650;SDS011;39552;45.776;15.892;2022-10-16T06:15:02;42.05;;;27.13;;
53650;SDS011;39552;45.776;15.892;2022-10-16T06:17:36;47.40;;;28.60;;
53650;SDS011;39552;45.776;15.892;2022-10-16T06:20:03;61.28;;;29.20;;
53650;SDS011;39552;45.776;15.892;2022-10-16T06:22:38;42.20;;;29.63;;
53650;SDS011;39552;45.776;15.892;2022-10-16T06:25:10;49.50;;;29.30;;
53650;SDS011;39552;45.776;15.892;2022-10-16T06:27:56;40.75;;;29.58;;
53650;SDS011;39552;45.776;15.892;2022-10-16T06:30:31;69.63;;;32.38;;
53650;SDS011;39552;45.776;15.892;2022-10-16T06:33:11;60.35;;;29.85;;
53650;SDS011;39552;45.776;15.892;2022-10-16T06:35:44;55.92;;;30.08;;
53650;SDS011;39552;45.776;15.892;2022-10-16T06:38:18;62.20;;;31.88;;
53650;SDS011;39552;45.776;15.892;2022-10-16T06:40:54;62.53;;;32.50;;
53650;SDS011;39552;45.776;15.892;2022-10-16T06:43:32;47.95;;;30.95;;
53650;SDS011;39552;45.776;15.892;2022-10-16T06:46:09;83.28;;;32.97;;
53650;SDS011;39552;45.776;15.892;2022-10-16T06:48:49;61.97;;;33.05;;
53650;SDS011;39552;45.776;15.892;2022-10-16T06:51:26;70.25;;;33.90;;
53650;SDS011;39552;45.776;15.892;2022-10-16T06:53:58;120.20;;;35.80;;
53650;SDS011;39552;45.776;15.892;2022-10-16T06:56:32;55.80;;;31.83;;
53650;SDS011;39552;45.776;15.892;2022-10-16T06:59:22;57.60;;;33.63;;
53650;SDS011;39552;45.776;15.892;2022-10-16T07:02:07;163.15;;;36.95;;
53650;SDS011;39552;45.776;15.892;2022-10-16T07:04:43;83.50;;;34.28;;
53650;SDS011;39552;45.776;15.892;2022-10-16T07:07:14;51.95;;;33.33;;
53650;SDS011;39552;45.776;15.892;2022-10-16T07:09:49;57.90;;;32.42;;
53650;SDS011;39552;45.776;15.892;2022-10-16T07:12:31;44.55;;;33.50;;
53650;SDS011;39552;45.776;15.892;2022-10-16T07:15:18;41.38;;;32.97;;
53650;SDS011;39552;45.776;15.892;2022-10-16T07:20:31;49.58;;;33.78;;
53650;SDS011;39552;45.776;15.892;2022-10-16T07:23:04;54.67;;;32.90;;
53650;SDS011;39552;45.776;15.892;2022-10-16T07:25:34;52.17;;;34.38;;
53650;SDS011;39552;45.776;15.892;2022-10-16T07:28:10;41.75;;;32.67;;
53650;SDS011;39552;45.776;15.892;2022-10-16T07:30:46;42.50;;;32.03;;
53650;SDS011;39552;45.776;15.892;2022-10-16T07:33:13;45.67;;;33.77;;
53650;SDS011;39552;45.776;15.892;2022-10-16T07:35:54;60.03;;;34.78;;
53650;SDS011;39552;45.776;15.892;2022-10-16T07:38:29;65.60;;;35.33;;
53650;SDS011;39552;45.776;15.892;2022-10-16T07:41:11;49.28;;;33.20;;
53650;SDS011;39552;45.776;15.892;2022-10-16T07:43:40;44.25;;;33.88;;
53650;SDS011;39552;45.776;15.892;2022-10-16T07:46:13;44.45;;;33.67;;
53650;SDS011;39552;45.776;15.892;2022-10-16T07:48:45;50.38;;;31.45;;
53650;SDS011;39552;45.776;15.892;2022-10-16T07:51:18;40.75;;;32.42;;
53650;SDS011;39552;45.776;15.892;2022-10-16T07:53:55;37.03;;;30.27;;
53650;SDS011;39552;45.776;15.892;2022-10-16T07:56:31;48.70;;;31.70;;
53650;SDS011;39552;45.776;15.892;2022-10-16T07:59:29;41.42;;;31.02;;
53650;SDS011;39552;45.776;15.892;2022-10-16T08:02:00;47.83;;;34.13;;
53650;SDS011;39552;45.776;15.892;2022-10-16T08:04:38;49.55;;;33.92;;
53650;SDS011;39552;45.776;15.892;2022-10-16T08:07:07;43.03;;;32.72;;
53650;SDS011;39552;45.776;15.892;2022-10-16T08:09:34;47.60;;;30.90;;
53650;SDS011;39552;45.776;15.892;2022-10-16T08:12:01;40.85;;;31.02;;
53650;SDS011;39552;45.776;15.892;2022-10-16T08:14:28;39.35;;;30.52;;
53650;SDS011;39552;45.776;15.892;2022-10-16T08:17:02;41.83;;;30.80;;
53650;SDS011;39552;45.776;15.892;2022-10-16T08:19:45;40.35;;;31.02;;
53650;SDS011;39552;45.776;15.892;2022-10-16T08:22:18;43.53;;;31.95;;
53650;SDS011;39552;45.776;15.892;2022-10-16T08:24:45;38.50;;;30.70;;
53650;SDS011;39552;45.776;15.892;2022-10-16T08:27:13;43.20;;;32.95;;
53650;SDS011;39552;45.776;15.892;2022-10-16T08:29:41;44.30;;;32.75;;
53650;SDS011;39552;45.776;15.892;2022-10-16T08:32:25;46.20;;;33.20;;
53650;SDS011;39552;45.776;15.892;2022-10-16T08:34:59;49.53;;;35.08;;
53650;SDS011;39552;45.776;15.892;2022-10-16T08:37:43;46.30;;;34.00;;
53650;SDS011;39552;45.776;15.892;2022-10-16T08:40:18;44.45;;;34.22;;
53650;SDS011;39552;45.776;15.892;2022-10-16T08:42:56;50.03;;;35.97;;
53650;SDS011;39552;45.776;15.892;2022-10-16T08:48:25;54.83;;;34.03;;
53650;SDS011;39552;45.776;15.892;2022-10-16T08:51:29;55.53;;;38.10;;
53650;SDS011;39552;45.776;15.892;2022-10-16T08:54:19;45.03;;;34.67;;
53650;SDS011;39552;45.776;15.892;2022-10-16T08:57:00;52.20;;;36.53;;
53650;SDS011;39552;45.776;15.892;2022-10-16T08:59:48;46.78;;;33.22;;
53650;SDS011;39552;45.776;15.892;2022-10-16T09:02:19;56.95;;;38.03;;
53650;SDS011;39552;45.776;15.892;2022-10-16T09:04:56;51.33;;;36.30;;
53650;SDS011;39552;45.776;15.892;2022-10-16T09:07:41;64.47;;;40.42;;
53650;SDS011;39552;45.776;15.892;2022-10-16T09:10:26;62.92;;;40.15;;
53650;SDS011;39552;45.776;15.892;2022-10-16T09:13:02;59.00;;;38.65;;
53650;SDS011;39552;45.776;15.892;2022-10-16T09:16:14;56.63;;;39.90;;
53650;SDS011;39552;45.776;15.892;2022-10-16T09:18:54;55.42;;;38.50;;
53650;SDS011;39552;45.776;15.892;2022-10-16T09:21:32;57.35;;;39.97;;
53650;SDS011;39552;45.776;15.892;2022-10-16T09:24:19;61.28;;;41.95;;
53650;SDS011;39552;45.776;15.892;2022-10-16T09:26:57;64.80;;;43.20;;
53650;SDS011;39552;45.776;15.892;2022-10-16T09:29:24;65.05;;;41.83;;
53650;SDS011;39552;45.776;15.892;2022-10-16T09:32:06;59.75;;;42.78;;
53650;SDS011;39552;45.776;15.892;2022-10-16T09:34:47;63.05;;;43.25;;
53650;SDS011;39552;45.776;15.892;2022-10-16T09:37:37;63.03;;;42.80;;
53650;SDS011;39552;45.776;15.892;2022-10-16T09:43:31;57.65;;;40.42;;
53650;SDS011;39552;45.776;15.892;2022-10-16T09:46:07;58.65;;;41.60;;
53650;SDS011;39552;45.776;15.892;2022-10-16T09:48:53;62.10;;;42.67;;
53650;SDS011;39552;45.776;15.892;2022-10-16T09:51:27;59.75;;;41.58;;
53650;SDS011;39552;45.776;15.892;2022-10-16T09:54:12;61.45;;;42.85;;
53650;SDS011;39552;45.776;15.892;2022-10-16T09:56:41;58.33;;;41.75;;
53650;SDS011;39552;45.776;15.892;2022-10-16T09:59:10;56.53;;;41.42;;
53650;SDS011;39552;45.776;15.892;2022-10-16T10:02:14;58.80;;;41.63;;
53650;SDS011;39552;45.776;15.892;2022-10-16T10:04:48;65.90;;;44.50;;
53650;SDS011;39552;45.776;15.892;2022-10-16T10:07:26;62.60;;;42.90;;
53650;SDS011;39552;45.776;15.892;2022-10-16T10:09:59;57.70;;;41.33;;
53650;SDS011;39552;45.776;15.892;2022-10-16T10:12:39;56.78;;;42.83;;
53650;SDS011;39552;45.776;15.892;2022-10-16T10:15:13;60.85;;;42.13;;
53650;SDS011;39552;45.776;15.892;2022-10-16T10:17:45;55.95;;;40.97;;
53650;SDS011;39552;45.776;15.892;2022-10-16T10:20:18;64.82;;;43.65;;
53650;SDS011;39552;45.776;15.892;2022-10-16T10:22:50;65.65;;;42.97;;
53650;SDS011;39552;45.776;15.892;2022-10-16T10:35:41;66.40;;;45.45;;
53650;SDS011;39552;45.776;15.892;2022-10-16T10:38:37;62.17;;;44.58;;
53650;SDS011;39552;45.776;15.892;2022-10-16T10:41:22;64.95;;;45.45;;
53650;SDS011;39552;45.776;15.892;2022-10-16T10:44:33;63.25;;;44.65;;
53650;SDS011;39552;45.776;15.892;2022-10-16T10:47:42;66.53;;;45.95;;
53650;SDS011;39552;45.776;15.892;2022-10-16T10:50:40;65.22;;;45.10;;
53650;SDS011;39552;45.776;15.892;2022-10-16T10:56:24;62.10;;;44.00;;
53650;SDS011;39552;45.776;15.892;2022-10-16T11:02:58;66.13;;;44.20;;
53650;SDS011;39552;45.776;15.892;2022-10-16T11:05:47;62.38;;;44.63;;
53650;SDS011;39552;45.776;15.892;2022-10-16T11:09:00;59.92;;;42.58;;
53650;SDS011;39552;45.776;15.892;2022-10-16T11:12:11;60.03;;;42.67;;
53650;SDS011;39552;45.776;15.892;2022-10-16T11:15:02;60.08;;;41.95;;
53650;SDS011;39552;45.776;15.892;2022-10-16T11:18:00;63.53;;;39.92;;
53650;SDS011;39552;45.776;15.892;2022-10-16T11:20:56;59.88;;;41.17;;
53650;SDS011;39552;45.776;15.892;2022-10-16T11:33:04;53.72;;;38.50;;
53650;SDS011;39552;45.776;15.892;2022-10-16T11:36:03;53.65;;;39.67;;
53650;SDS011;39552;45.776;15.892;2022-10-16T11:38:51;58.05;;;38.30;;
53650;SDS011;39552;45.776;15.892;2022-10-16T11:41:47;56.13;;;39.67;;
53650;SDS011;39552;45.776;15.892;2022-10-16T11:44:45;59.33;;;40.38;;
53650;SDS011;39552;45.776;15.892;2022-10-16T11:50:23;53.83;;;37.53;;
53650;SDS011;39552;45.776;15.892;2022-10-16T11:56:37;54.45;;;37.15;;
53650;SDS011;39552;45.776;15.892;2022-10-16T11:59:28;53.97;;;37.92;;
53650;SDS011;39552;45.776;15.892;2022-10-16T12:05:35;50.33;;;35.28;;
53650;SDS011;39552;45.776;15.892;2022-10-16T12:08:38;45.67;;;33.15;;
53650;SDS011;39552;45.776;15.892;2022-10-16T12:15:31;44.80;;;33.22;;
53650;SDS011;39552;45.776;15.892;2022-10-16T12:18:30;41.50;;;29.98;;
53650;SDS011;39552;45.776;15.892;2022-10-16T12:31:52;37.85;;;27.30;;
53650;SDS011;39552;45.776;15.892;2022-10-16T12:34:41;35.63;;;26.52;;
53650;SDS011;39552;45.776;15.892;2022-10-16T12:37:38;40.83;;;29.00;;
53650;SDS011;39552;45.776;15.892;2022-10-16T12:43:57;35.97;;;26.52;;
53650;SDS011;39552;45.776;15.892;2022-10-16T13:25:37;35.70;;;25.88;;
53650;SDS011;39552;45.776;15.892;2022-10-16T13:28:38;40.22;;;28.50;;
53650;SDS011;39552;45.776;15.892;2022-10-16T13:31:43;40.47;;;29.00;;
53650;SDS011;39552;45.776;15.892;2022-10-16T13:47:41;40.08;;;27.23;;
53650;SDS011;39552;45.776;15.892;2022-10-16T13:57:36;36.33;;;25.60;;
53650;SDS011;39552;45.776;15.892;2022-10-16T14:00:31;28.73;;;25.60;;
53650;SDS011;39552;45.776;15.892;2022-10-16T14:09:49;36.45;;;25.98;;
53650;SDS011;39552;45.776;15.892;2022-10-16T14:13:14;39.70;;;26.45;;
53650;SDS011;39552;45.776;15.892;2022-10-16T14:15:51;37.63;;;27.38;;
53650;SDS011;39552;45.776;15.892;2022-10-16T14:18:57;38.80;;;26.35;;
53650;SDS011;39552;45.776;15.892;2022-10-16T14:24:09;36.42;;;27.58;;
53650;SDS011;39552;45.776;15.892;2022-10-16T14:31:58;31.52;;;24.65;;
53650;SDS011;39552;45.776;15.892;2022-10-16T14:34:37;35.83;;;26.58;;
53650;SDS011;39552;45.776;15.892;2022-10-16T14:41:14;38.22;;;28.58;;
53650;SDS011;39552;45.776;15.892;2022-10-16T14:50:23;40.13;;;27.55;;
53650;SDS011;39552;45.776;15.892;2022-10-16T14:53:16;35.40;;;26.83;;
53650;SDS011;39552;45.776;15.892;2022-10-16T14:56:05;34.50;;;26.17;;
53650;SDS011;39552;45.776;15.892;2022-10-16T14:58:49;40.35;;;26.42;;
53650;SDS011;39552;45.776;15.892;2022-10-16T15:01:23;40.10;;;27.00;;
53650;SDS011;39552;45.776;15.892;2022-10-16T15:03:49;34.40;;;27.40;;
53650;SDS011;39552;45.776;15.892;2022-10-16T15:08:52;40.25;;;26.65;;
53650;SDS011;39552;45.776;15.892;2022-10-16T15:11:24;33.17;;;26.52;;
53650;SDS011;39552;45.776;15.892;2022-10-16T15:14:22;33.33;;;27.80;;
53650;SDS011;39552;45.776;15.892;2022-10-16T15:23:10;41.72;;;26.92;;
53650;SDS011;39552;45.776;15.892;2022-10-16T15:25:47;39.58;;;27.20;;
53650;SDS011;39552;45.776;15.892;2022-10-16T15:28:51;34.53;;;27.27;;
53650;SDS011;39552;45.776;15.892;2022-10-16T15:35:16;35.88;;;26.67;;
53650;SDS011;39552;45.776;15.892;2022-10-16T15:41:18;33.92;;;26.20;;
53650;SDS011;39552;45.776;15.892;2022-10-16T15:43:59;37.53;;;26.20;;
53650;SDS011;39552;45.776;15.892;2022-10-16T15:48:58;36.10;;;26.77;;
53650;SDS011;39552;45.776;15.892;2022-10-16T15:51:44;34.00;;;26.98;;
53650;SDS011;39552;45.776;15.892;2022-10-16T15:56:40;36.40;;;27.05;;
53650;SDS011;39552;45.776;15.892;2022-10-16T15:59:07;41.50;;;27.93;;
53650;SDS011;39552;45.776;15.892;2022-10-16T16:01:34;44.38;;;27.90;;
53650;SDS011;39552;45.776;15.892;2022-10-16T16:04:01;33.70;;;27.88;;
53650;SDS011;39552;45.776;15.892;2022-10-16T16:06:48;40.72;;;29.20;;
53650;SDS011;39552;45.776;15.892;2022-10-16T16:09:17;41.20;;;29.17;;
53650;SDS011;39552;45.776;15.892;2022-10-16T16:11:46;39.72;;;29.98;;
53650;SDS011;39552;45.776;15.892;2022-10-16T16:14:13;34.95;;;28.77;;
53650;SDS011;39552;45.776;15.892;2022-10-16T16:16:40;40.35;;;28.73;;
53650;SDS011;39552;45.776;15.892;2022-10-16T16:19:15;36.95;;;27.58;;
53650;SDS011;39552;45.776;15.892;2022-10-16T16:21:49;42.67;;;31.20;;
53650;SDS011;39552;45.776;15.892;2022-10-16T16:24:16;42.05;;;30.67;;
53650;SDS011;39552;45.776;15.892;2022-10-16T16:27:00;40.70;;;30.23;;
53650;SDS011;39552;45.776;15.892;2022-10-16T16:29:55;44.80;;;31.08;;
53650;SDS011;39552;45.776;15.892;2022-10-16T16:32:41;47.60;;;31.50;;
53650;SDS011;39552;45.776;15.892;2022-10-16T16:35:32;44.58;;;32.53;;
53650;SDS011;39552;45.776;15.892;2022-10-16T16:38:05;48.80;;;33.50;;
53650;SDS011;39552;45.776;15.892;2022-10-16T16:40:33;42.97;;;32.53;;
53650;SDS011;39552;45.776;15.892;2022-10-16T16:43:01;45.85;;;33.17;;
53650;SDS011;39552;45.776;15.892;2022-10-16T16:45:28;42.88;;;32.45;;
53650;SDS011;39552;45.776;15.892;2022-10-16T16:47:59;53.17;;;34.08;;
53650;SDS011;39552;45.776;15.892;2022-10-16T16:50:26;44.78;;;32.63;;
53650;SDS011;39552;45.776;15.892;2022-10-16T16:52:59;50.10;;;35.25;;
53650;SDS011;39552;45.776;15.892;2022-10-16T16:55:26;47.95;;;35.15;;
53650;SDS011;39552;45.776;15.892;2022-10-16T16:57:53;60.38;;;37.65;;
53650;SDS011;39552;45.776;15.892;2022-10-16T17:00:24;55.65;;;36.67;;
53650;SDS011;39552;45.776;15.892;2022-10-16T17:02:51;51.70;;;36.10;;
53650;SDS011;39552;45.776;15.892;2022-10-16T17:05:17;53.53;;;36.15;;
53650;SDS011;39552;45.776;15.892;2022-10-16T17:07:44;64.47;;;37.45;;
53650;SDS011;39552;45.776;15.892;2022-10-16T17:10:11;57.42;;;38.80;;
53650;SDS011;39552;45.776;15.892;2022-10-16T17:12:37;50.75;;;37.55;;
53650;SDS011;39552;45.776;15.892;2022-10-16T17:15:04;53.47;;;37.80;;
53650;SDS011;39552;45.776;15.892;2022-10-16T17:17:33;53.75;;;37.80;;
53650;SDS011;39552;45.776;15.892;2022-10-16T17:20:00;58.15;;;37.28;;
53650;SDS011;39552;45.776;15.892;2022-10-16T17:22:27;55.88;;;38.67;;
53650;SDS011;39552;45.776;15.892;2022-10-16T17:24:54;51.67;;;36.28;;
53650;SDS011;39552;45.776;15.892;2022-10-16T17:27:27;46.63;;;34.72;;
53650;SDS011;39552;45.776;15.892;2022-10-16T17:29:54;50.13;;;35.08;;
53650;SDS011;39552;45.776;15.892;2022-10-16T17:32:20;59.17;;;36.75;;
53650;SDS011;39552;45.776;15.892;2022-10-16T17:34:49;58.80;;;35.15;;
53650;SDS011;39552;45.776;15.892;2022-10-16T17:37:15;51.78;;;34.92;;
53650;SDS011;39552;45.776;15.892;2022-10-16T17:39:43;57.53;;;36.67;;
53650;SDS011;39552;45.776;15.892;2022-10-16T17:42:10;49.95;;;36.92;;
53650;SDS011;39552;45.776;15.892;2022-10-16T17:44:37;62.40;;;38.78;;
53650;SDS011;39552;45.776;15.892;2022-10-16T17:47:04;63.58;;;41.70;;
53650;SDS011;39552;45.776;15.892;2022-10-16T17:49:30;60.88;;;41.10;;
53650;SDS011;39552;45.776;15.892;2022-10-16T17:51:58;60.45;;;41.78;;
53650;SDS011;39552;45.776;15.892;2022-10-16T17:54:25;59.00;;;40.33;;
53650;SDS011;39552;45.776;15.892;2022-10-16T17:56:52;59.75;;;39.47;;
53650;SDS011;39552;45.776;15.892;2022-10-16T17:59:18;63.80;;;39.92;;
53650;SDS011;39552;45.776;15.892;2022-10-16T18:01:45;58.58;;;39.40;;
53650;SDS011;39552;45.776;15.892;2022-10-16T18:04:13;57.85;;;37.97;;
53650;SDS011;39552;45.776;15.892;2022-10-16T18:06:42;79.57;;;48.92;;